Time;durP1;ratioP1;P1;durP2;ratioP2;P2;SDS_P1;SDS_P2;PMS_P1;PMS_P2;Temp;Humidity;BMP_temperature;BMP_pressure;BME280_temperature;BME280_humidity;BME280_pressure;Samples;Min_cycle;Max_cycle;Signal;HPM_P1;HPM_P2
2021/01/10 00:00:52;;;;;;;46.72;15.00;;;-2.00;99.90;;;;;;5029340;28;20542;-66
2021/01/10 00:03:19;;;;;;;45.42;13.23;;;-2.00;99.90;;;;;;5021209;28;20511;-66
2021/01/10 00:05:46;;;;;;;43.53;12.85;;;-2.00;99.90;;;;;;5027076;28;20041;-66
2021/01/10 00:08:12;;;;;;;46.70;12.77;;;-2.00;99.90;;;;;;5027786;28;20045;-66
2021/01/10 00:10:39;;;;;;;39.33;11.27;;;-2.00;99.90;;;;;;5030868;28;20663;-66
2021/01/10 00:13:05;;;;;;;37.13;12.10;;;-2.00;99.90;;;;;;5026891;28;20045;-66
2021/01/10 00:15:32;;;;;;;35.05;9.85;;;-2.00;99.90;;;;;;5025658;28;20052;-66
2021/01/10 00:17:59;;;;;;;35.42;9.63;;;-2.00;99.90;;;;;;5027483;28;20034;-66
2021/01/10 00:20:27;;;;;;;22.17;6.72;;;-2.00;99.90;;;;;;5021511;28;20053;-66
2021/01/10 00:22:55;;;;;;;35.08;8.48;;;-2.00;99.90;;;;;;5008191;28;20045;-66
2021/01/10 00:25:22;;;;;;;30.60;7.78;;;-2.00;99.90;;;;;;5030632;28;20040;-66
2021/01/10 00:27:50;;;;;;;27.33;8.55;;;-2.00;99.90;;;;;;5038456;28;20048;-66
2021/01/10 00:30:20;;;;;;;33.65;8.50;;;-2.00;99.90;;;;;;5025053;28;20060;-66
2021/01/10 00:32:52;;;;;;;25.67;7.75;;;-2.00;99.90;;;;;;5027570;28;20053;-66
2021/01/10 00:35:23;;;;;;;24.25;7.40;;;-2.00;99.90;;;;;;5025568;28;20046;-66
2021/01/10 00:37:52;;;;;;;22.58;6.90;;;-2.00;99.90;;;;;;5026097;28;20050;-66
2021/01/10 00:40:20;;;;;;;28.27;7.28;;;-1.90;99.90;;;;;;5024318;28;20037;-66
2021/01/10 00:42:47;;;;;;;29.73;8.38;;;-2.00;99.90;;;;;;5022404;28;20053;-66
2021/01/10 00:45:19;;;;;;;32.17;8.63;;;-2.00;99.90;;;;;;5024112;28;20112;-66
2021/01/10 00:47:53;;;;;;;29.52;7.82;;;-1.90;99.90;;;;;;5024951;28;20037;-66
2021/01/10 00:50:25;;;;;;;30.58;8.23;;;-1.90;99.90;;;;;;5025745;28;20056;-66
2021/01/10 00:52:52;;;;;;;30.73;9.38;;;-1.90;99.90;;;;;;5027333;28;20034;-66
2021/01/10 00:55:19;;;;;;;33.90;8.60;;;-1.80;99.90;;;;;;5027310;28;20041;-66
2021/01/10 00:57:49;;;;;;;31.90;9.18;;;-1.70;99.90;;;;;;5005206;28;20056;-66
2021/01/10 01:00:18;;;;;;;30.40;7.75;;;-1.70;99.90;;;;;;5023093;28;20459;-66
2021/01/10 01:02:48;;;;;;;32.50;8.13;;;-1.70;99.90;;;;;;5030286;28;20049;-66
2021/01/10 01:05:18;;;;;;;29.15;6.85;;;-1.70;99.90;;;;;;5026277;28;20504;-66
2021/01/10 01:07:45;;;;;;;30.70;8.60;;;-1.70;99.90;;;;;;5023035;28;20049;-66
2021/01/10 01:10:12;;;;;;;32.10;8.30;;;-1.70;99.90;;;;;;5027180;28;20136;-66
2021/01/10 01:12:39;;;;;;;24.90;7.32;;;-1.60;99.90;;;;;;5020340;28;20042;-67
2021/01/10 01:15:06;;;;;;;39.17;9.73;;;-1.60;99.90;;;;;;5033331;28;20095;-66
2021/01/10 01:17:33;;;;;;;40.45;10.32;;;-1.60;99.90;;;;;;5031235;28;20518;-66
2021/01/10 01:20:01;;;;;;;38.65;9.85;;;-1.50;99.90;;;;;;5030629;28;20073;-66
2021/01/10 01:22:28;;;;;;;40.42;8.48;;;-1.50;99.90;;;;;;5028614;28;20523;-66
2021/01/10 01:24:54;;;;;;;33.92;9.02;;;-1.40;99.90;;;;;;5029691;28;20049;-66
2021/01/10 01:27:21;;;;;;;36.63;9.95;;;-1.40;99.90;;;;;;5029795;28;20780;-66
2021/01/10 01:29:48;;;;;;;29.15;7.88;;;-1.50;99.90;;;;;;5020006;28;20401;-66
2021/01/10 01:32:15;;;;;;;41.92;9.73;;;-1.50;99.90;;;;;;5023478;28;20416;-66
2021/01/10 01:34:42;;;;;;;29.08;9.85;;;-1.40;99.90;;;;;;5029887;28;20050;-66
2021/01/10 01:37:09;;;;;;;36.80;10.45;;;-1.40;99.90;;;;;;5015174;28;20061;-66
2021/01/10 01:39:35;;;;;;;39.40;11.68;;;-1.40;99.90;;;;;;5028021;28;20049;-66
2021/01/10 01:42:02;;;;;;;46.67;14.02;;;-1.30;99.90;;;;;;5025166;28;20060;-66
2021/01/10 01:44:28;;;;;;;48.20;13.77;;;-1.30;99.90;;;;;;5027671;28;20057;-66
2021/01/10 01:46:55;;;;;;;49.15;13.70;;;-1.30;99.90;;;;;;5028619;28;20053;-66
2021/01/10 01:49:23;;;;;;;37.60;11.23;;;-1.20;99.90;;;;;;5023382;28;20377;-66
2021/01/10 01:51:50;;;;;;;36.35;12.63;;;-1.30;99.90;;;;;;5014465;28;20042;-66
2021/01/10 01:54:17;;;;;;;48.83;12.73;;;-1.20;99.90;;;;;;5027881;28;20042;-66
2021/01/10 01:56:44;;;;;;;50.75;16.08;;;-1.20;99.90;;;;;;5024413;28;20038;-66
2021/01/10 01:59:13;;;;;;;37.25;11.68;;;-1.20;99.90;;;;;;5025091;28;20048;-66
2021/01/10 02:01:40;;;;;;;45.95;12.30;;;-1.20;99.90;;;;;;5023557;28;20094;-66
2021/01/10 02:04:29;;;;;;;47.80;12.90;;;-1.20;99.90;;;;;;5028725;28;20034;-66
2021/01/10 02:07:04;;;;;;;47.30;11.85;;;-1.10;99.90;;;;;;5025813;28;20129;-66
2021/01/10 02:09:39;;;;;;;35.85;11.00;;;-1.10;99.90;;;;;;5026178;28;20048;-66
2021/01/10 02:12:09;;;;;;;36.55;11.02;;;-1.10;99.90;;;;;;5010500;28;20059;-66
2021/01/10 02:14:44;;;;;;;33.10;11.00;;;-1.10;99.90;;;;;;5032985;28;20554;-66
2021/01/10 02:17:14;;;;;;;34.92;10.82;;;-1.10;99.90;;;;;;5022944;28;20088;-66
2021/01/10 02:19:56;;;;;;;37.88;11.05;;;-1.10;99.90;;;;;;5028805;28;20057;-66
2021/01/10 02:22:31;;;;;;;41.65;11.10;;;-1.10;99.90;;;;;;5024584;28;20052;-66
2021/01/10 02:24:59;;;;;;;34.90;11.20;;;-1.00;99.90;;;;;;5027436;28;20047;-66
2021/01/10 02:27:25;;;;;;;34.75;10.73;;;-1.00;99.90;;;;;;5030433;28;20563;-66
2021/01/10 02:29:52;;;;;;;42.72;11.90;;;-1.00;99.90;;;;;;5029517;28;20049;-65
2021/01/10 02:32:21;;;;;;;39.92;11.57;;;-0.90;99.90;;;;;;5024277;28;20384;-66
2021/01/10 02:34:50;;;;;;;38.55;10.88;;;-0.90;99.90;;;;;;5026272;28;20060;-66
2021/01/10 02:38:02;;;;;;;32.90;10.45;;;-0.90;99.90;;;;;;5019947;28;20056;-66
2021/01/10 02:40:45;;;;;;;40.63;11.25;;;-0.90;99.90;;;;;;5008603;28;20049;-66
2021/01/10 02:43:20;;;;;;;38.92;10.57;;;-0.90;99.90;;;;;;5023650;28;20052;-66
2021/01/10 02:45:51;;;;;;;29.60;8.85;;;-0.90;99.90;;;;;;5010517;28;20113;-66
2021/01/10 02:48:19;;;;;;;47.78;11.43;;;-0.90;99.90;;;;;;5025377;28;20060;-66
2021/01/10 02:50:47;;;;;;;31.48;9.43;;;-0.80;99.90;;;;;;5015349;28;20451;-66
2021/01/10 02:53:13;;;;;;;37.80;11.98;;;-0.80;99.90;;;;;;5011217;28;20054;-66
2021/01/10 02:55:40;;;;;;;36.55;11.57;;;-0.80;99.90;;;;;;5009073;28;20041;-66
2021/01/10 02:58:18;;;;;;;39.65;11.18;;;-0.70;99.90;;;;;;5009727;28;20042;-66
2021/01/10 03:00:47;;;;;;;33.13;11.38;;;-0.70;99.90;;;;;;5020528;28;20052;-65
2021/01/10 03:03:15;;;;;;;36.63;11.85;;;-0.70;99.90;;;;;;5026574;28;20825;-66
2021/01/10 03:05:42;;;;;;;37.53;11.10;;;-0.70;99.90;;;;;;5014302;28;20088;-65
2021/01/10 03:08:10;;;;;;;35.97;12.18;;;-0.70;99.90;;;;;;5027982;28;20353;-66
2021/01/10 03:10:38;;;;;;;41.08;12.02;;;-0.70;99.90;;;;;;5010949;28;20632;-66
2021/01/10 03:13:05;;;;;;;33.97;9.75;;;-0.70;99.90;;;;;;5020782;28;20053;-66
2021/01/10 03:15:32;;;;;;;31.63;10.82;;;-0.70;99.90;;;;;;5004723;28;20099;-66
2021/01/10 03:18:15;;;;;;;30.45;8.90;;;-0.70;99.90;;;;;;5020680;28;20038;-66
2021/01/10 03:20:42;;;;;;;33.22;11.57;;;-0.70;99.90;;;;;;5024571;28;20405;-66
2021/01/10 03:23:08;;;;;;;38.88;11.02;;;-0.70;99.90;;;;;;5028459;28;20048;-66
2021/01/10 03:25:35;;;;;;;38.38;10.27;;;-0.80;99.90;;;;;;5028377;28;20061;-66
2021/01/10 03:28:02;;;;;;;35.60;11.35;;;-0.80;99.90;;;;;;5030209;28;20041;-66
2021/01/10 03:30:30;;;;;;;37.20;9.30;;;-0.80;99.90;;;;;;5027723;28;20045;-66
2021/01/10 03:32:56;;;;;;;38.72;11.60;;;-0.80;99.90;;;;;;5022981;28;20564;-66
2021/01/10 03:35:23;;;;;;;25.00;7.97;;;-0.80;99.90;;;;;;5019179;28;20041;-66
2021/01/10 03:37:50;;;;;;;41.08;10.32;;;-0.80;99.90;;;;;;5025441;28;20049;-65
2021/01/10 03:40:17;;;;;;;36.05;9.20;;;-0.80;99.90;;;;;;5011979;28;20041;-67
2021/01/10 03:42:44;;;;;;;35.17;10.75;;;-0.70;99.90;;;;;;5029128;28;20052;-66
2021/01/10 03:45:13;;;;;;;43.20;11.55;;;-0.70;99.90;;;;;;5026769;28;20473;-66
2021/01/10 03:47:39;;;;;;;35.33;10.85;;;-0.80;99.90;;;;;;5015350;28;20443;-66
2021/01/10 03:50:08;;;;;;;32.85;11.57;;;-0.70;99.90;;;;;;5020539;28;20045;-66
2021/01/10 03:52:34;;;;;;;41.08;10.45;;;-0.70;99.90;;;;;;5030087;28;20116;-66
2021/01/10 03:55:04;;;;;;;37.88;10.65;;;-0.70;99.90;;;;;;5026380;28;20069;-66
2021/01/10 03:57:30;;;;;;;34.92;10.07;;;-0.70;99.90;;;;;;5027905;28;20044;-66
2021/01/10 03:59:57;;;;;;;37.85;11.13;;;-0.70;99.90;;;;;;5021733;28;20045;-66
2021/01/10 04:02:24;;;;;;;31.77;11.02;;;-0.60;99.90;;;;;;5011608;28;20492;-65
2021/01/10 04:04:50;;;;;;;25.52;10.07;;;-0.60;99.90;;;;;;5020655;28;20057;-65
2021/01/10 04:07:17;;;;;;;30.35;9.82;;;-0.60;99.90;;;;;;5030276;28;20099;-65
2021/01/10 04:09:43;;;;;;;30.08;9.48;;;-0.60;99.90;;;;;;5031599;28;20053;-66
2021/01/10 04:12:10;;;;;;;33.40;11.52;;;-0.50;99.90;;;;;;5030867;28;20053;-66
2021/01/10 04:14:37;;;;;;;39.28;11.70;;;-0.50;99.90;;;;;;5029823;28;20045;-66
2021/01/10 04:17:04;;;;;;;30.48;10.00;;;-0.50;99.90;;;;;;5006852;28;20044;-66
2021/01/10 04:19:31;;;;;;;32.75;9.82;;;-0.50;99.90;;;;;;5026741;28;20069;-66
2021/01/10 04:21:57;;;;;;;35.25;11.15;;;-0.50;99.90;;;;;;5028013;28;20037;-67
2021/01/10 04:24:24;;;;;;;27.45;8.93;;;-0.40;99.90;;;;;;5028004;28;20489;-66
2021/01/10 04:26:50;;;;;;;32.20;8.85;;;-0.40;99.90;;;;;;5026727;28;20107;-66
2021/01/10 04:29:19;;;;;;;27.48;8.15;;;-0.30;99.90;;;;;;5029724;28;20037;-66
2021/01/10 04:31:47;;;;;;;28.45;7.97;;;-0.30;99.90;;;;;;5025430;28;20092;-66
2021/01/10 04:34:15;;;;;;;28.58;8.35;;;-0.30;99.90;;;;;;5021322;28;20042;-67
2021/01/10 04:36:42;;;;;;;28.15;7.90;;;-0.30;99.90;;;;;;5009720;28;20045;-66
2021/01/10 04:39:13;;;;;;;32.85;7.47;;;-0.30;99.90;;;;;;5029123;28;20037;-66
2021/01/10 04:41:41;;;;;;;31.25;8.50;;;-0.30;99.90;;;;;;5023843;28;20053;-66
2021/01/10 04:44:07;;;;;;;35.60;10.45;;;-0.30;99.90;;;;;;5018071;28;20043;-66
2021/01/10 04:46:35;;;;;;;29.80;7.50;;;-0.30;99.90;;;;;;5023357;28;20069;-66
2021/01/10 04:49:02;;;;;;;34.83;8.82;;;-0.30;99.90;;;;;;5026305;28;20076;-66
2021/01/10 04:51:29;;;;;;;29.77;8.48;;;-0.30;99.90;;;;;;5029299;28;20072;-66
2021/01/10 04:54:00;;;;;;;27.83;8.55;;;-0.30;99.90;;;;;;5028289;28;20038;-66
2021/01/10 04:56:31;;;;;;;31.85;9.05;;;-0.30;99.90;;;;;;5031910;28;20056;-66
2021/01/10 04:59:02;;;;;;;29.90;10.07;;;-0.20;99.90;;;;;;5033573;28;20583;-66
2021/01/10 05:01:53;;;;;;;30.00;8.45;;;-0.20;99.90;;;;;;5025133;28;20055;-67
2021/01/10 05:04:21;;;;;;;36.42;9.43;;;-0.20;99.90;;;;;;5016764;28;20137;-65
2021/01/10 05:06:48;;;;;;;31.92;9.95;;;-0.20;99.90;;;;;;5031185;28;20037;-65
2021/01/10 05:09:19;;;;;;;26.10;7.78;;;-0.20;99.90;;;;;;5033351;28;20572;-65
2021/01/10 05:11:45;;;;;;;34.53;11.23;;;-0.20;99.90;;;;;;5032374;28;20052;-66
2021/01/10 05:14:12;;;;;;;27.52;8.50;;;-0.20;99.90;;;;;;5033066;28;20033;-65
2021/01/10 05:16:39;;;;;;;31.13;10.15;;;-0.20;99.90;;;;;;5028213;28;20546;-66
2021/01/10 05:19:06;;;;;;;35.00;9.75;;;-0.20;99.90;;;;;;5025372;28;20100;-66
2021/01/10 05:21:32;;;;;;;34.65;9.77;;;-0.20;99.90;;;;;;5027029;28;20041;-66
2021/01/10 05:24:01;;;;;;;32.17;8.93;;;-0.20;99.90;;;;;;5030202;28;20045;-65
2021/01/10 05:26:32;;;;;;;31.45;8.73;;;-0.20;99.90;;;;;;5032214;28;20056;-66
2021/01/10 05:29:05;;;;;;;24.50;6.75;;;-0.20;99.90;;;;;;5028612;28;20053;-66
2021/01/10 05:31:33;;;;;;;29.67;8.20;;;-0.20;99.90;;;;;;5023584;28;20132;-66
2021/01/10 05:34:01;;;;;;;29.70;8.57;;;-0.20;99.90;;;;;;5026584;28;20038;-66
2021/01/10 05:36:36;;;;;;;41.67;9.93;;;-0.20;99.90;;;;;;4998094;28;20042;-66
2021/01/10 05:39:24;;;;;;;29.42;8.60;;;-0.20;99.90;;;;;;5023644;28;20052;-66
2021/01/10 05:42:03;;;;;;;33.70;7.70;;;-0.20;99.90;;;;;;5026760;28;20057;-66
2021/01/10 05:44:31;;;;;;;29.15;7.97;;;-0.20;99.90;;;;;;5030230;28;20160;-67
2021/01/10 05:47:01;;;;;;;30.17;9.25;;;-0.20;99.90;;;;;;5029652;28;20570;-66
2021/01/10 05:49:29;;;;;;;38.45;9.77;;;-0.20;99.90;;;;;;5024149;28;20046;-66
2021/01/10 05:52:05;;;;;;;25.38;7.97;;;-0.20;99.90;;;;;;5030347;28;20140;-66
2021/01/10 05:54:40;;;;;;;23.65;7.68;;;-0.20;99.90;;;;;;5027758;28;20033;-66
2021/01/10 05:57:11;;;;;;;27.05;7.15;;;-0.20;99.90;;;;;;5030926;28;20045;-66
2021/01/10 05:59:58;;;;;;;33.85;9.43;;;-0.20;99.90;;;;;;5028550;28;20226;-66
2021/01/10 06:02:33;;;;;;;24.05;8.25;;;-0.10;99.90;;;;;;5029997;28;20049;-66
2021/01/10 06:05:16;;;;;;;29.92;8.75;;;-0.10;99.90;;;;;;5001861;28;20050;-65
2021/01/10 06:07:43;;;;;;;;;;;-0.10;99.90;;;;;;5025816;28;20137;-66
2021/01/10 06:10:11;;;;;;;30.77;9.13;;;-0.10;99.90;;;;;;5024779;28;20316;-65
2021/01/10 06:12:39;;;;;;;31.35;8.52;;;0.00;99.90;;;;;;5022584;28;20128;-65
2021/01/10 06:15:18;;;;;;;21.88;7.20;;;0.00;99.90;;;;;;5029380;28;20037;-66
2021/01/10 06:17:47;;;;;;;37.78;9.80;;;0.00;99.90;;;;;;5031242;28;20072;-67
2021/01/10 06:20:23;;;;;;;33.63;10.32;;;0.00;99.90;;;;;;5023902;28;20129;-67
2021/01/10 06:22:51;;;;;;;33.78;10.07;;;0.10;99.90;;;;;;5025435;28;20045;-67
2021/01/10 06:25:23;;;;;;;53.75;19.17;;;0.00;99.90;;;;;;5031251;28;20039;-67
2021/01/10 06:28:10;;;;;;;49.50;18.83;;;0.00;99.90;;;;;;5025991;28;20057;-66
2021/01/10 06:30:40;;;;;;;32.42;11.40;;;0.00;99.90;;;;;;5007193;28;20054;-66
2021/01/10 06:33:12;;;;;;;26.42;10.02;;;0.00;99.90;;;;;;5030875;28;23012;-67
2021/01/10 06:35:40;;;;;;;43.35;12.52;;;0.10;99.90;;;;;;5027456;28;20096;-66
2021/01/10 06:38:09;;;;;;;37.28;11.52;;;0.00;99.90;;;;;;5024935;28;20098;-66
2021/01/10 06:40:37;;;;;;;43.20;12.52;;;0.10;99.90;;;;;;5031546;28;20388;-66
2021/01/10 06:43:05;;;;;;;45.67;13.23;;;0.10;99.90;;;;;;5031193;28;20038;-66
2021/01/10 06:45:38;;;;;;;38.05;12.80;;;0.10;99.90;;;;;;5029163;28;20057;-66
2021/01/10 06:48:06;;;;;;;37.50;12.45;;;0.10;99.90;;;;;;5020876;28;20485;-66
2021/01/10 06:50:33;;;;;;;35.00;9.40;;;0.10;99.90;;;;;;5029116;28;20514;-66
2021/01/10 06:53:18;;;;;;;40.78;10.95;;;0.10;99.90;;;;;;5028924;28;20048;-66
2021/01/10 06:55:45;;;;;;;35.80;10.77;;;0.10;99.90;;;;;;5008758;28;20065;-66
2021/01/10 06:58:11;;;;;;;40.35;12.05;;;0.10;99.90;;;;;;5021760;28;20110;-66
2021/01/10 07:00:58;;;;;;;38.38;11.77;;;0.10;99.90;;;;;;5033258;28;20049;-66
2021/01/10 07:03:28;;;;;;;38.20;11.73;;;0.10;99.90;;;;;;5029243;28;22022;-66
2021/01/10 07:05:56;;;;;;;44.35;13.05;;;0.10;99.90;;;;;;5028698;28;20045;-66
2021/01/10 07:08:36;;;;;;;41.92;12.40;;;0.20;99.90;;;;;;5028586;28;20041;-66
2021/01/10 07:11:23;;;;;;;38.75;12.00;;;0.20;99.90;;;;;;5030003;28;20499;-66
2021/01/10 07:13:51;;;;;;;35.78;10.88;;;0.20;99.90;;;;;;5028696;28;20051;-65
2021/01/10 07:16:22;;;;;;;42.47;12.65;;;0.20;99.90;;;;;;5031025;28;20167;-67
2021/01/10 07:18:51;;;;;;;39.00;11.18;;;0.30;99.90;;;;;;5031196;28;20049;-66
2021/01/10 07:21:37;;;;;;;45.00;10.30;;;0.30;99.90;;;;;;5033413;28;20041;-67
2021/01/10 07:24:13;;;;;;;38.28;10.07;;;0.30;99.90;;;;;;5015262;28;20802;-67
2021/01/10 07:26:44;;;;;;;40.60;9.73;;;0.20;99.90;;;;;;5017832;28;20049;-67
2021/01/10 07:29:34;;;;;;;33.83;10.30;;;0.20;99.90;;;;;;5030014;28;20045;-67
2021/01/10 07:32:10;;;;;;;40.53;10.75;;;0.30;99.90;;;;;;5028089;28;20048;-66
2021/01/10 07:34:44;;;;;;;40.88;11.57;;;0.30;99.90;;;;;;5026634;28;20059;-66
2021/01/10 07:37:16;;;;;;;36.78;10.07;;;0.30;99.90;;;;;;5027000;28;20045;-67
2021/01/10 07:39:51;;;;;;;;;;;0.20;99.90;;;;;;5018743;28;20054;-67
2021/01/10 07:42:19;;;;;;;43.40;9.63;;;0.20;99.90;;;;;;5026409;28;20295;-66
2021/01/10 07:44:50;;;;;;;27.67;8.63;;;0.20;99.90;;;;;;5021023;28;20107;-65
2021/01/10 07:47:41;;;;;;;24.80;7.68;;;0.20;99.90;;;;;;5025445;28;20029;-66
2021/01/10 07:50:28;;;;;;;35.25;9.18;;;0.20;99.90;;;;;;5020679;28;20396;-66
2021/01/10 07:52:58;;;;;;;33.33;9.77;;;0.10;99.90;;;;;;5040092;28;20049;-67
2021/01/10 07:55:27;;;;;;;37.08;10.50;;;0.10;99.90;;;;;;5020668;28;20156;-66
2021/01/10 07:58:14;;;;;;;37.65;9.57;;;0.10;99.90;;;;;;5028264;28;20070;-67
2021/01/10 08:00:47;;;;;;;36.20;9.23;;;0.10;99.90;;;;;;5028470;28;20153;-66
2021/01/10 08:03:27;;;;;;;34.13;10.10;;;0.20;99.90;;;;;;5018070;28;20042;-65
2021/01/10 08:06:01;;;;;;;33.00;8.43;;;0.20;99.90;;;;;;5025654;28;20069;-67
2021/01/10 08:08:48;;;;;;;28.23;8.85;;;0.20;99.90;;;;;;5022698;28;20140;-67
2021/01/10 08:11:31;;;;;;;30.50;7.90;;;0.20;99.90;;;;;;5028694;28;20669;-67
2021/01/10 08:14:03;;;;;;;35.03;9.18;;;0.20;99.90;;;;;;5011905;28;20050;-66
2021/01/10 08:16:31;;;;;;;30.75;9.52;;;0.20;99.90;;;;;;5012021;28;20065;-66
2021/01/10 08:19:04;;;;;;;28.75;8.13;;;0.20;99.90;;;;;;5008776;28;20053;-65
2021/01/10 08:21:31;;;;;;;42.93;10.33;;;0.20;99.90;;;;;;5025650;28;20049;-66
2021/01/10 08:24:03;;;;;;;26.27;9.30;;;0.20;99.90;;;;;;5024516;28;20056;-66
2021/01/10 08:26:29;;;;;;;31.98;9.00;;;0.20;99.90;;;;;;5022151;28;20052;-67
2021/01/10 08:29:02;;;;;;;32.78;9.15;;;0.30;99.90;;;;;;5026489;28;20124;-67
2021/01/10 08:31:29;;;;;;;37.35;9.00;;;0.30;99.90;;;;;;5011651;28;20399;-66
2021/01/10 08:34:05;;;;;;;32.50;9.80;;;0.30;99.90;;;;;;5028232;28;20056;-66
2021/01/10 08:36:33;;;;;;;32.83;10.55;;;0.20;99.90;;;;;;5007474;28;20046;-65
2021/01/10 08:39:10;;;;;;;28.95;9.15;;;0.30;99.90;;;;;;5020904;28;20030;-66
2021/01/10 08:41:48;;;;;;;34.50;10.77;;;0.30;99.90;;;;;;5024253;28;20049;-66
2021/01/10 08:44:18;;;;;;;31.70;8.90;;;0.40;99.90;;;;;;5007159;28;20496;-65
2021/01/10 08:46:48;;;;;;;31.65;10.30;;;0.40;99.90;;;;;;5018810;28;20038;-66
2021/01/10 08:49:24;;;;;;;34.15;8.85;;;0.40;99.90;;;;;;5018784;28;20056;-66
2021/01/10 08:51:52;;;;;;;31.85;9.32;;;0.30;99.90;;;;;;5017677;28;20055;-66
2021/01/10 08:54:20;;;;;;;38.83;11.40;;;0.30;99.90;;;;;;5017254;28;20121;-66
2021/01/10 08:56:53;;;;;;;43.67;11.20;;;0.40;99.90;;;;;;5018296;28;20159;-65
2021/01/10 08:59:21;;;;;;;45.35;11.40;;;0.40;99.90;;;;;;5026324;28;20042;-66
2021/01/10 09:01:48;;;;;;;37.28;10.45;;;0.50;99.90;;;;;;5019229;28;20042;-65
2021/01/10 09:04:17;;;;;;;35.65;9.73;;;0.50;99.90;;;;;;5024137;28;20045;-66
2021/01/10 09:06:48;;;;;;;38.47;10.32;;;0.50;99.90;;;;;;5011585;28;20073;-66
2021/01/10 09:10:00;;;;;;;46.67;12.57;;;0.50;99.90;;;;;;5020206;28;20132;-66
2021/01/10 09:12:38;;;;;;;36.78;10.30;;;0.60;99.90;;;;;;5014558;28;20054;-65
2021/01/10 09:15:17;;;;;;;34.70;9.93;;;0.60;99.90;;;;;;5020453;28;20052;-65
2021/01/10 09:17:51;;;;;;;35.70;10.20;;;0.50;99.90;;;;;;5036376;28;20115;-66
2021/01/10 09:20:33;;;;;;;40.10;11.40;;;0.60;99.90;;;;;;5021328;28;20447;-66
2021/01/10 09:23:07;;;;;;;40.42;11.45;;;0.70;99.90;;;;;;5015701;28;20045;-66
2021/01/10 09:25:34;;;;;;;35.90;9.50;;;0.80;99.90;;;;;;5023971;28;20045;-66
2021/01/10 09:28:16;;;;;;;45.13;11.40;;;0.90;99.90;;;;;;5022245;28;20538;-66
2021/01/10 09:30:53;;;;;;;30.25;8.27;;;0.90;99.90;;;;;;5020985;28;20052;-66
2021/01/10 09:33:25;;;;;;;38.92;9.25;;;0.80;99.90;;;;;;5027106;28;20045;-66
2021/01/10 09:35:54;;;;;;;29.92;8.23;;;0.80;99.90;;;;;;5021501;28;20124;-66
2021/01/10 09:38:23;;;;;;;42.13;9.25;;;0.80;99.90;;;;;;5016029;28;20034;-66
2021/01/10 09:41:12;;;;;;;33.65;9.35;;;0.70;99.90;;;;;;5018520;28;20128;-66
2021/01/10 09:43:48;;;;;;;29.65;9.70;;;0.70;99.90;;;;;;5027030;28;20069;-66
2021/01/10 09:46:32;;;;;;;36.03;9.77;;;0.60;99.90;;;;;;5005557;28;20077;-66
2021/01/10 09:49:07;;;;;;;42.47;11.52;;;0.60;99.90;;;;;;4996465;28;20050;-63
2021/01/10 09:51:44;;;;;;;35.55;10.63;;;0.70;99.90;;;;;;5003885;28;20056;-64
2021/01/10 09:54:16;;;;;;;41.55;11.45;;;0.70;99.90;;;;;;5014885;28;20073;-64
2021/01/10 09:56:46;;;;;;;52.55;12.55;;;0.70;99.90;;;;;;5022742;28;20041;-64
2021/01/10 09:59:40;;;;;;;45.67;10.93;;;0.70;99.90;;;;;;5021254;28;20150;-64
2021/01/10 10:02:19;;;;;;;38.75;10.77;;;0.70;99.90;;;;;;5029396;28;20073;-65
2021/01/10 10:05:06;;;;;;;37.63;9.90;;;0.60;99.90;;;;;;5018092;28;20060;-64
2021/01/10 10:07:40;;;;;;;38.20;9.77;;;0.60;99.90;;;;;;5015272;28;20090;-63
2021/01/10 10:10:21;;;;;;;32.22;9.55;;;0.70;99.90;;;;;;5023443;28;20388;-63
2021/01/10 10:12:54;;;;;;;40.67;9.52;;;0.70;99.90;;;;;;5025201;28;20033;-63
2021/01/10 10:15:23;;;;;;;38.60;11.15;;;0.70;99.90;;;;;;5014532;28;20046;-64
2021/01/10 10:17:59;;;;;;;50.28;11.70;;;0.70;99.90;;;;;;5017659;28;20076;-66
2021/01/10 10:20:28;;;;;;;32.40;7.85;;;0.70;99.90;;;;;;5013480;28;21136;-66
2021/01/10 10:22:58;;;;;;;29.63;9.05;;;0.70;99.90;;;;;;5018693;28;20163;-66
2021/01/10 10:25:25;;;;;;;35.35;10.88;;;0.70;99.90;;;;;;5012667;28;20116;-66
2021/01/10 10:27:54;;;;;;;40.63;10.07;;;0.70;99.90;;;;;;5017034;28;20041;-66
2021/01/10 10:30:22;;;;;;;33.50;8.13;;;0.60;99.90;;;;;;5029350;28;20048;-65
2021/01/10 10:32:49;;;;;;;34.75;9.32;;;0.70;99.90;;;;;;5024754;28;20630;-67
2021/01/10 10:35:16;;;;;;;31.73;10.35;;;0.60;99.90;;;;;;5003365;28;20761;-68
2021/01/10 10:37:43;;;;;;;29.05;8.95;;;0.70;99.90;;;;;;5015933;28;20053;-66
2021/01/10 10:40:11;;;;;;;40.15;9.88;;;0.70;99.90;;;;;;5021141;28;20481;-66
2021/01/10 10:42:37;;;;;;;34.00;9.13;;;0.60;99.90;;;;;;5021176;28;20045;-67
2021/01/10 10:45:05;;;;;;;27.92;8.75;;;0.70;99.90;;;;;;5023993;28;20489;-67
2021/01/10 10:47:31;;;;;;;30.63;9.18;;;0.70;99.90;;;;;;5021557;28;20041;-67
2021/01/10 10:49:58;;;;;;;41.20;10.55;;;0.60;99.90;;;;;;5024119;28;20148;-67
2021/01/10 10:52:25;;;;;;;29.40;8.20;;;0.60;99.90;;;;;;5021850;28;20046;-66
2021/01/10 10:54:52;;;;;;;31.58;10.32;;;0.60;99.90;;;;;;5021130;28;20043;-67
2021/01/10 10:57:18;;;;;;;33.95;9.57;;;0.60;99.90;;;;;;5026265;28;20488;-67
2021/01/10 10:59:45;;;;;;;28.33;8.90;;;0.60;99.90;;;;;;5022265;28;20038;-66
2021/01/10 11:02:12;;;;;;;38.80;9.30;;;0.60;99.90;;;;;;5002408;28;20076;-65
2021/01/10 11:04:47;;;;;;;34.97;8.93;;;0.60;99.90;;;;;;5020731;28;20120;-65
2021/01/10 11:07:14;;;;;;;39.33;9.23;;;0.60;99.90;;;;;;5021664;28;20854;-65
2021/01/10 11:09:42;;;;;;;29.67;8.68;;;0.70;99.90;;;;;;5023753;28;20045;-66
2021/01/10 11:12:09;;;;;;;33.20;10.40;;;0.70;99.90;;;;;;5025919;28;20041;-65
2021/01/10 11:14:36;;;;;;;33.75;8.90;;;0.60;99.90;;;;;;5017348;28;20447;-64
2021/01/10 11:17:05;;;;;;;35.55;10.40;;;0.70;99.90;;;;;;5021907;28;20140;-65
2021/01/10 11:19:32;;;;;;;29.75;9.45;;;0.60;99.90;;;;;;5022178;28;20504;-65
2021/01/10 11:22:01;;;;;;;33.42;11.13;;;0.70;99.90;;;;;;5021062;28;20122;-65
2021/01/10 11:24:28;;;;;;;39.47;11.73;;;0.70;99.90;;;;;;5018924;28;20030;-65
2021/01/10 11:26:55;;;;;;;32.67;9.35;;;0.70;99.90;;;;;;5017105;28;20099;-65
2021/01/10 11:29:22;;;;;;;42.03;10.23;;;0.60;99.90;;;;;;5012288;28;20081;-66
2021/01/10 11:31:48;;;;;;;36.67;9.68;;;0.70;99.90;;;;;;5024876;28;20440;-65
2021/01/10 11:34:16;;;;;;;28.00;7.60;;;0.70;99.90;;;;;;5026568;28;20053;-65
2021/01/10 11:36:48;;;;;;;34.70;9.10;;;0.70;99.90;;;;;;5019869;28;20058;-66
2021/01/10 11:39:16;;;;;;;39.15;10.10;;;0.60;99.90;;;;;;5022786;28;20141;-64
2021/01/10 11:41:50;;;;;;;37.63;9.60;;;0.50;99.90;;;;;;5006893;28;20046;-65
2021/01/10 11:44:18;;;;;;;34.20;10.77;;;0.50;99.90;;;;;;5005634;28;20048;-65
2021/01/10 11:46:48;;;;;;;38.53;10.45;;;0.50;99.90;;;;;;5026463;28;20095;-64
2021/01/10 11:49:15;;;;;;;36.97;12.25;;;0.50;99.90;;;;;;5020948;28;20045;-65
2021/01/10 11:51:42;;;;;;;29.75;9.55;;;0.50;99.90;;;;;;5025892;28;20046;-64
2021/01/10 11:54:12;;;;;;;25.50;7.18;;;0.50;99.90;;;;;;5022059;28;20052;-64
2021/01/10 11:56:40;;;;;;;34.00;10.77;;;0.50;99.90;;;;;;5025811;28;20046;-65
2021/01/10 11:59:07;;;;;;;32.05;10.73;;;0.60;99.90;;;;;;5025757;28;20042;-66
2021/01/10 12:01:36;;;;;;;31.02;11.23;;;0.50;99.90;;;;;;5022871;28;20686;-65
2021/01/10 12:04:04;;;;;;;31.48;9.32;;;0.50;99.90;;;;;;5017128;28;20637;-63
2021/01/10 12:06:32;;;;;;;33.55;9.65;;;0.50;99.90;;;;;;5017646;28;20042;-62
2021/01/10 12:08:59;;;;;;;32.75;10.65;;;0.50;99.90;;;;;;5021685;28;20052;-64
2021/01/10 12:11:26;;;;;;;39.35;10.10;;;0.40;99.90;;;;;;5022621;28;20099;-66
2021/01/10 12:13:55;;;;;;;25.15;8.45;;;0.40;99.90;;;;;;5016169;28;20136;-65
2021/01/10 12:16:22;;;;;;;30.75;9.25;;;0.40;99.90;;;;;;5016599;28;20041;-65
2021/01/10 12:18:49;;;;;;;30.33;10.65;;;0.40;99.90;;;;;;5023762;28;20852;-64
2021/01/10 12:21:16;;;;;;;33.47;9.98;;;0.40;99.90;;;;;;5021375;28;20591;-64
2021/01/10 12:23:44;;;;;;;30.63;9.32;;;0.40;99.90;;;;;;5025494;28;20069;-64
2021/01/10 12:26:12;;;;;;;29.15;8.05;;;0.50;99.90;;;;;;5013800;28;20508;-67
2021/01/10 12:28:39;;;;;;;31.23;9.38;;;0.50;99.90;;;;;;4995748;28;20049;-67
2021/01/10 12:31:07;;;;;;;32.50;8.73;;;0.50;99.90;;;;;;5015142;28;20045;-65
2021/01/10 12:33:38;;;;;;;37.65;11.00;;;0.60;99.90;;;;;;5014740;28;20053;-66
2021/01/10 12:36:09;;;;;;;34.65;9.40;;;0.70;99.90;;;;;;5010561;28;20129;-67
2021/01/10 12:38:37;;;;;;;35.45;9.63;;;0.70;99.90;;;;;;5017784;28;20037;-67
2021/01/10 12:41:04;;;;;;;26.13;8.18;;;0.60;99.90;;;;;;5021711;28;20057;-66
2021/01/10 12:43:31;;;;;;;31.08;10.27;;;0.60;99.90;;;;;;5011887;28;20065;-67
2021/01/10 12:45:58;;;;;;;28.65;10.05;;;0.70;99.90;;;;;;5020254;28;20124;-67
2021/01/10 12:48:25;;;;;;;29.45;8.75;;;0.60;99.90;;;;;;5019401;28;20060;-67
2021/01/10 12:50:53;;;;;;;29.25;9.38;;;0.60;99.90;;;;;;5019062;28;20046;-67
2021/01/10 12:53:20;;;;;;;40.40;11.75;;;0.50;99.90;;;;;;5020119;28;20045;-67
2021/01/10 12:55:47;;;;;;;31.38;9.93;;;0.50;99.90;;;;;;5017288;28;20168;-67